Time;durP1;ratioP1;P1;durP2;ratioP2;P2;SDS_P1;SDS_P2;PMS_P1;PMS_P2;Temp;Humidity;BMP_temperature;BMP_pressure;BME280_temperature;BME280_humidity;BME280_pressure;Samples;Min_cycle;Max_cycle;Signal;HPM_P1;HPM_P2
2023/05/28 00:01:46;;;;;;;10.90;5.63;;;11.00;99.90;;;;;;4975922;28;92934;-33
2023/05/28 00:04:12;;;;;;;13.15;6.13;;;10.90;99.90;;;;;;4975344;28;93263;-34
2023/05/28 00:06:37;;;;;;;13.35;5.47;;;10.90;99.90;;;;;;4976141;28;94726;-33
2023/05/28 00:09:03;;;;;;;13.00;6.35;;;10.90;99.90;;;;;;4976352;28;95522;-34
2023/05/28 00:11:29;;;;;;;11.55;6.93;;;10.80;99.90;;;;;;4976339;28;92523;-31
2023/05/28 00:13:54;;;;;;;13.73;5.50;;;10.80;99.90;;;;;;4975501;28;94346;-33
2023/05/28 00:16:20;;;;;;;9.88;6.07;;;10.80;99.90;;;;;;4975757;28;95592;-34
2023/05/28 00:18:46;;;;;;;10.32;4.70;;;10.70;99.90;;;;;;4979421;28;95743;-33
2023/05/28 00:21:11;;;;;;;10.95;5.38;;;10.70;99.90;;;;;;4961126;28;93606;-34
2023/05/28 00:23:37;;;;;;;12.77;6.15;;;10.70;99.90;;;;;;4962558;28;93601;-31
2023/05/28 00:26:03;;;;;;;21.35;6.35;;;10.70;99.90;;;;;;4961362;28;94644;-35
2023/05/28 00:28:29;;;;;;;13.68;6.07;;;10.60;99.90;;;;;;4978743;28;94563;-34
2023/05/28 00:30:54;;;;;;;14.50;5.88;;;10.60;99.90;;;;;;4961030;28;93710;-33
2023/05/28 00:33:20;;;;;;;9.98;5.72;;;10.50;99.90;;;;;;4979776;28;91721;-34
2023/05/28 00:35:46;;;;;;;12.98;5.80;;;10.50;99.90;;;;;;4979427;28;95525;-32
2023/05/28 00:38:11;;;;;;;14.43;6.95;;;10.40;99.90;;;;;;4977910;28;94412;-32
2023/05/28 00:40:41;;;;;;;16.25;7.03;;;10.40;99.90;;;;;;4979436;28;94050;-32
2023/05/28 00:43:07;;;;;;;12.07;6.22;;;10.40;99.90;;;;;;4979042;28;94153;-34
2023/05/28 00:45:32;;;;;;;15.60;7.15;;;10.40;99.90;;;;;;4979280;28;93567;-31
2023/05/28 00:47:58;;;;;;;13.30;6.75;;;10.40;99.90;;;;;;4979486;28;94803;-36
2023/05/28 00:50:25;;;;;;;14.10;6.80;;;10.40;99.90;;;;;;4978180;28;94254;-34
2023/05/28 00:52:52;;;;;;;14.70;5.60;;;10.30;99.90;;;;;;4978885;28;94528;-31
2023/05/28 00:55:18;;;;;;;9.45;5.40;;;10.30;99.90;;;;;;4978967;28;94545;-32
2023/05/28 00:57:45;;;;;;;21.77;6.93;;;10.20;99.90;;;;;;4979398;28;94451;-35
2023/05/28 01:00:13;;;;;;;16.48;6.68;;;10.20;99.90;;;;;;4960722;28;92616;-33
2023/05/28 01:02:39;;;;;;;9.52;5.93;;;10.20;99.90;;;;;;4978378;28;93233;-33
2023/05/28 01:05:05;;;;;;;10.82;5.22;;;10.20;99.90;;;;;;4978822;28;95538;-31
2023/05/28 01:07:32;;;;;;;12.82;7.40;;;10.20;99.90;;;;;;4978225;28;95469;-33
2023/05/28 01:09:58;;;;;;;14.35;6.38;;;10.30;99.90;;;;;;4979181;28;94395;-35
2023/05/28 01:12:25;;;;;;;15.93;6.40;;;10.30;99.90;;;;;;4978541;28;94520;-32
2023/05/28 01:14:52;;;;;;;15.40;6.60;;;10.20;99.90;;;;;;4978144;28;95005;-34
2023/05/28 01:17:18;;;;;;;10.63;7.38;;;10.30;99.90;;;;;;4978118;28;93764;-33
2023/05/28 01:19:47;;;;;;;12.85;7.70;;;10.20;99.90;;;;;;4978263;28;92162;-33
2023/05/28 01:22:15;;;;;;;;;;;10.20;99.90;;;;;;4979826;28;93710;-31
2023/05/28 01:24:41;;;;;;;;;;;10.10;99.90;;;;;;4980092;28;93571;-34
2023/05/28 01:27:07;;;;;;;13.77;7.18;;;10.00;99.90;;;;;;4979124;28;94335;-34
2023/05/28 01:29:33;;;;;;;10.55;7.05;;;10.00;99.90;;;;;;4977265;28;94257;-33
2023/05/28 01:32:00;;;;;;;13.43;6.22;;;9.90;99.90;;;;;;4978375;28;92609;-32
2023/05/28 01:34:26;;;;;;;13.73;6.15;;;9.90;99.90;;;;;;4978165;28;94094;-30
2023/05/28 01:37:00;;;;;;;11.32;6.53;;;9.90;99.90;;;;;;4978121;28;94508;-33
2023/05/28 01:39:29;;;;;;;8.07;5.85;;;9.90;99.90;;;;;;4978338;28;94676;-34
2023/05/28 01:41:55;;;;;;;12.82;7.60;;;9.90;99.90;;;;;;4978145;28;94042;-35
2023/05/28 01:44:22;;;;;;;16.23;7.78;;;9.80;99.90;;;;;;4978795;28;94785;-34
2023/05/28 01:46:49;;;;;;;13.20;6.82;;;9.80;99.90;;;;;;4978448;28;94451;-32
2023/05/28 01:49:17;;;;;;;10.77;5.80;;;9.80;99.90;;;;;;4978066;28;93225;-31
2023/05/28 01:51:43;;;;;;;11.20;6.80;;;9.80;99.90;;;;;;4978653;28;92955;-36
2023/05/28 01:54:08;;;;;;;13.05;6.55;;;9.80;99.90;;;;;;4976873;28;97554;-33
2023/05/28 01:56:34;;;;;;;11.45;7.10;;;9.80;99.90;;;;;;4978076;28;95768;-31
2023/05/28 01:59:00;;;;;;;12.85;7.43;;;9.80;99.90;;;;;;4978464;28;93445;-34
2023/05/28 02:01:29;;;;;;;13.57;7.45;;;9.70;99.90;;;;;;4977346;28;94548;-30
2023/05/28 02:03:58;;;;;;;7.15;4.88;;;9.80;99.90;;;;;;4977700;28;94711;-30
2023/05/28 02:06:25;;;;;;;17.85;8.10;;;9.80;99.90;;;;;;4977030;28;94549;-32
2023/05/28 02:08:52;;;;;;;15.45;7.55;;;9.70;99.90;;;;;;4978733;28;94504;-35
2023/05/28 02:11:18;;;;;;;13.93;7.45;;;9.70;99.90;;;;;;4978875;28;91733;-32
2023/05/28 02:13:44;;;;;;;21.33;7.63;;;9.70;99.90;;;;;;4976940;28;95055;-33
2023/05/28 02:16:10;;;;;;;21.90;10.43;;;9.70;99.90;;;;;;4977911;28;95039;-30
2023/05/28 02:18:36;;;;;;;12.93;7.63;;;9.70;99.90;;;;;;4976925;28;94595;-34
2023/05/28 02:21:03;;;;;;;15.18;7.30;;;9.70;99.90;;;;;;4977152;28;93184;-31
2023/05/28 02:23:29;;;;;;;18.50;7.40;;;9.80;99.90;;;;;;4978059;28;94542;-34
2023/05/28 02:25:55;;;;;;;15.20;7.97;;;9.80;99.90;;;;;;4977249;28;95016;-34
2023/05/28 02:28:20;;;;;;;10.35;7.45;;;9.80;99.90;;;;;;4977698;28;92965;-34
2023/05/28 02:30:46;;;;;;;13.75;7.05;;;9.80;99.90;;;;;;4977563;28;93413;-30
2023/05/28 02:33:11;;;;;;;14.77;6.50;;;9.80;99.90;;;;;;4976892;28;94681;-31
2023/05/28 02:35:37;;;;;;;14.38;7.40;;;9.80;99.90;;;;;;4978154;28;95064;-34
2023/05/28 02:38:03;;;;;;;11.77;7.28;;;9.80;99.90;;;;;;4977087;28;94137;-31
2023/05/28 02:40:28;;;;;;;15.10;8.27;;;9.80;99.90;;;;;;4976739;28;92334;-34
2023/05/28 02:42:54;;;;;;;11.95;7.38;;;9.90;99.90;;;;;;4976535;28;95983;-33
2023/05/28 02:45:20;;;;;;;17.58;7.65;;;9.90;99.90;;;;;;4959326;28;95347;-33
2023/05/28 02:47:45;;;;;;;19.45;7.40;;;9.80;99.90;;;;;;4977975;28;92242;-31
2023/05/28 02:50:11;;;;;;;21.50;9.15;;;9.80;99.90;;;;;;4977080;28;93182;-33
2023/05/28 02:52:36;;;;;;;15.13;7.50;;;9.80;99.90;;;;;;4977140;28;94960;-35
2023/05/28 02:55:02;;;;;;;15.02;6.72;;;9.80;99.90;;;;;;4976970;28;94687;-34
2023/05/28 02:57:28;;;;;;;17.35;6.70;;;9.80;99.90;;;;;;4977502;28;93619;-32
2023/05/28 02:59:53;;;;;;;12.55;7.00;;;9.80;99.90;;;;;;4977102;28;92321;-32
2023/05/28 03:02:19;;;;;;;14.52;6.53;;;9.90;99.90;;;;;;4976346;28;95358;-33
2023/05/28 03:04:44;;;;;;;10.57;5.97;;;9.90;99.90;;;;;;4977187;28;96095;-30
2023/05/28 03:07:10;;;;;;;12.18;7.97;;;9.90;99.90;;;;;;4976258;28;95822;-31
2023/05/28 03:09:37;;;;;;;10.40;5.88;;;9.90;99.90;;;;;;4977051;28;93040;-34
2023/05/28 03:12:03;;;;;;;13.55;7.60;;;9.90;99.90;;;;;;4976628;28;94609;-32
2023/05/28 03:14:28;;;;;;;16.30;6.82;;;9.90;99.90;;;;;;4958796;28;95098;-31
2023/05/28 03:16:54;;;;;;;14.10;7.47;;;9.90;99.90;;;;;;4977253;28;92179;-31
2023/05/28 03:19:20;;;;;;;17.77;8.20;;;9.90;99.90;;;;;;4957977;28;94507;-34
2023/05/28 03:21:45;;;;;;;13.07;6.97;;;9.90;99.90;;;;;;4977099;28;95150;-32
2023/05/28 03:24:11;;;;;;;13.43;6.60;;;9.90;99.90;;;;;;4976997;28;94651;-34
2023/05/28 03:26:37;;;;;;;18.27;7.78;;;9.90;99.90;;;;;;4959623;28;93209;-32
2023/05/28 03:29:02;;;;;;;12.82;7.57;;;9.90;99.90;;;;;;4976836;28;94366;-33
2023/05/28 03:31:29;;;;;;;15.73;7.57;;;10.00;99.90;;;;;;4974935;28;95470;-34
2023/05/28 03:33:55;;;;;;;12.15;6.97;;;10.00;99.90;;;;;;4977357;28;95353;-43
2023/05/28 03:36:24;;;;;;;14.13;7.60;;;10.00;99.90;;;;;;4976410;28;94344;-33
2023/05/28 03:38:50;;;;;;;16.13;6.13;;;10.00;99.90;;;;;;4976432;28;93692;-31
2023/05/28 03:41:16;;;;;;;11.52;7.47;;;9.90;99.90;;;;;;4976289;28;94652;-34
2023/05/28 03:43:41;;;;;;;15.60;5.97;;;10.00;99.90;;;;;;4976629;28;94690;-33
2023/05/28 03:46:07;;;;;;;14.98;6.93;;;10.00;99.90;;;;;;4976683;28;93420;-35
2023/05/28 03:48:33;;;;;;;16.77;8.48;;;10.00;99.90;;;;;;4977291;28;93895;-31
2023/05/28 03:50:58;;;;;;;13.52;6.30;;;10.00;99.90;;;;;;4976289;28;94081;-29
2023/05/28 03:53:24;;;;;;;13.98;5.97;;;10.00;99.90;;;;;;4979961;28;94244;-34
2023/05/28 03:55:51;;;;;;;16.98;7.43;;;10.00;99.90;;;;;;4979778;28;94410;-36
2023/05/28 03:58:17;;;;;;;15.80;7.28;;;10.10;99.90;;;;;;4979712;28;94511;-35
2023/05/28 04:00:43;;;;;;;7.90;5.90;;;10.10;99.90;;;;;;4979786;28;95433;-33
2023/05/28 04:03:08;;;;;;;14.73;6.43;;;10.10;99.90;;;;;;4979629;28;94792;-32
2023/05/28 04:05:34;;;;;;;15.90;8.02;;;10.20;99.90;;;;;;4980124;28;93354;-33
2023/05/28 04:08:01;;;;;;;24.30;7.03;;;10.20;99.90;;;;;;4961482;28;92378;-34
2023/05/28 04:10:27;;;;;;;16.87;7.87;;;10.30;99.90;;;;;;4978652;28;94689;-33
2023/05/28 04:12:54;;;;;;;22.75;7.75;;;10.30;99.90;;;;;;4980058;28;94395;-33
2023/05/28 04:15:20;;;;;;;16.70;8.02;;;10.30;99.90;;;;;;4980078;28;94295;-30
2023/05/28 04:17:46;;;;;;;21.10;8.02;;;10.30;99.90;;;;;;4979232;28;93148;-31
2023/05/28 04:20:12;;;;;;;10.73;6.65;;;10.40;99.90;;;;;;5012377;22;95764;-35
2023/05/28 04:22:37;;;;;;;14.68;7.80;;;10.40;99.90;;;;;;4978492;28;95269;-32
2023/05/28 04:25:04;;;;;;;13.98;6.25;;;10.40;99.90;;;;;;4980058;28;92289;-37
2023/05/28 04:27:30;;;;;;;17.70;6.18;;;10.40;99.90;;;;;;4979644;28;93363;-30
2023/05/28 04:29:56;;;;;;;11.00;7.88;;;10.40;99.90;;;;;;4978613;28;94623;-33
2023/05/28 04:32:23;;;;;;;13.25;6.93;;;10.40;99.90;;;;;;4979140;28;94873;-33
2023/05/28 04:34:51;;;;;;;16.25;7.93;;;10.50;99.90;;;;;;4979032;28;93205;-32
2023/05/28 04:37:17;;;;;;;11.45;7.03;;;10.50;99.90;;;;;;4979047;28;93341;-32
2023/05/28 04:39:43;;;;;;;16.70;6.97;;;10.50;99.90;;;;;;4979207;28;94607;-31
2023/05/28 04:42:13;;;;;;;11.57;6.88;;;10.50;99.90;;;;;;4978745;28;95335;-30
2023/05/28 04:44:40;;;;;;;13.55;7.00;;;10.50;99.90;;;;;;4978911;28;93491;-31
2023/05/28 04:47:06;;;;;;;13.38;9.35;;;10.60;99.90;;;;;;4978521;28;95151;-33
2023/05/28 04:49:31;;;;;;;10.02;6.63;;;10.60;99.90;;;;;;4979321;28;94921;-35
2023/05/28 04:51:57;;;;;;;13.57;8.15;;;10.60;99.90;;;;;;4978680;28;94541;-32
2023/05/28 04:54:23;;;;;;;14.30;7.50;;;10.70;99.90;;;;;;4978165;28;93399;-35
2023/05/28 04:56:49;;;;;;;10.50;7.38;;;10.70;99.90;;;;;;4978894;28;93061;-32
2023/05/28 04:59:14;;;;;;;15.13;7.97;;;10.90;99.90;;;;;;4978055;28;94684;-34
2023/05/28 05:01:41;;;;;;;12.35;7.38;;;11.00;99.90;;;;;;4979570;28;94416;-31
2023/05/28 05:04:07;;;;;;;15.85;7.85;;;11.10;99.90;;;;;;4978733;28;93165;-32
2023/05/28 05:06:33;;;;;;;17.17;7.22;;;11.20;99.90;;;;;;4978517;28;92520;-32
2023/05/28 05:08:59;;;;;;;25.45;8.45;;;11.30;99.90;;;;;;4978170;28;96239;-31
2023/05/28 05:11:26;;;;;;;16.15;8.75;;;11.40;99.90;;;;;;4978047;28;95382;-33
2023/05/28 05:13:52;;;;;;;16.77;9.23;;;11.50;99.90;;;;;;4978813;28;95022;-35
2023/05/28 05:16:18;;;;;;;19.85;10.70;;;11.60;99.90;;;;;;4978971;28;92778;-34
2023/05/28 05:18:44;;;;;;;15.00;8.52;;;11.70;99.90;;;;;;4977130;28;94844;-35
2023/05/28 05:21:12;;;;;;;12.35;7.75;;;11.80;99.90;;;;;;4977246;28;95376;-32
2023/05/28 05:23:39;;;;;;;14.48;8.18;;;11.80;99.90;;;;;;4979045;28;94401;-35
2023/05/28 05:26:05;;;;;;;22.05;7.57;;;11.80;99.90;;;;;;4961104;28;92994;-31
2023/05/28 05:28:31;;;;;;;15.00;6.97;;;11.80;99.90;;;;;;4978262;28;94240;-30
2023/05/28 05:30:56;;;;;;;17.63;7.63;;;11.90;99.90;;;;;;4977685;28;94503;-32
2023/05/28 05:33:22;;;;;;;14.63;7.78;;;11.90;99.90;;;;;;4977478;28;94515;-35
2023/05/28 05:35:47;;;;;;;14.35;6.97;;;11.90;99.90;;;;;;4978706;28;92248;-33
2023/05/28 05:38:13;;;;;;;15.82;8.32;;;11.90;99.90;;;;;;4977978;28;95775;-33
2023/05/28 05:40:39;;;;;;;14.30;8.93;;;12.00;99.90;;;;;;4960085;28;94906;-31
2023/05/28 05:43:04;;;;;;;13.43;7.82;;;12.30;99.90;;;;;;4978096;28;94211;-31
2023/05/28 05:45:30;;;;;;;15.85;8.90;;;12.60;99.90;;;;;;4959894;28;92979;-32
2023/05/28 05:47:55;;;;;;;12.02;8.27;;;12.70;99.90;;;;;;4978275;28;94735;-35
2023/05/28 05:50:21;;;;;;;21.95;8.88;;;12.80;99.90;;;;;;4977968;28;94434;-31
2023/05/28 05:52:47;;;;;;;16.83;6.80;;;12.90;99.90;;;;;;4978906;28;92887;-32
2023/05/28 05:55:12;;;;;;;12.95;6.88;;;13.10;99.90;;;;;;4977417;28;92216;-32
2023/05/28 05:57:38;;;;;;;14.60;7.38;;;13.20;99.90;;;;;;4977612;28;95981;-33
2023/05/28 06:00:06;;;;;;;11.85;7.43;;;13.40;99.90;;;;;;4978033;28;95138;-32
2023/05/28 06:02:32;;;;;;;14.77;8.00;;;13.50;99.90;;;;;;4978173;28;92614;-30
2023/05/28 06:04:58;;;;;;;12.95;6.78;;;13.60;99.90;;;;;;4977340;28;94074;-30
2023/05/28 06:07:23;;;;;;;11.07;6.88;;;13.70;99.90;;;;;;4977723;28;94791;-33
2023/05/28 06:09:49;;;;;;;15.68;6.97;;;13.70;99.90;;;;;;4976986;28;94724;-32
2023/05/28 06:12:15;;;;;;;12.43;7.00;;;14.00;99.90;;;;;;4978024;28;94184;-35
2023/05/28 06:14:41;;;;;;;19.60;8.48;;;14.20;99.90;;;;;;4976866;28;91941;-32
2023/05/28 06:17:09;;;;;;;18.85;7.82;;;14.40;99.90;;;;;;4977289;28;95306;-33
2023/05/28 06:19:34;;;;;;;8.18;4.68;;;14.60;99.90;;;;;;4977734;28;94291;-31
2023/05/28 06:22:00;;;;;;;10.27;5.40;;;14.70;99.90;;;;;;4977052;28;95315;-32
2023/05/28 06:24:25;;;;;;;7.97;5.25;;;14.80;99.90;;;;;;4977896;28;93153;-35
2023/05/28 06:26:51;;;;;;;8.07;5.43;;;14.80;99.90;;;;;;4977328;28;94544;-32
2023/05/28 06:29:17;;;;;;;13.18;6.10;;;14.90;99.90;;;;;;4977215;28;93406;-36
2023/05/28 06:31:42;;;;;;;8.90;6.53;;;15.00;99.90;;;;;;4978070;28;92149;-31
2023/05/28 06:34:08;;;;;;;14.77;5.47;;;15.00;99.90;;;;;;4977040;28;94188;-32
2023/05/28 06:36:35;;;;;;;9.18;5.18;;;15.00;99.90;;;;;;4959736;28;95022;-35
2023/05/28 06:39:01;;;;;;;19.38;5.55;;;15.00;99.90;;;;;;4977462;28;94836;-30
2023/05/28 06:41:27;;;;;;;9.30;5.82;;;15.10;99.90;;;;;;4972043;28;92248;-34
2023/05/28 06:43:53;;;;;;;8.30;5.25;;;15.30;99.90;;;;;;4967982;28;94380;-33
2023/05/28 06:46:21;;;;;;;14.05;6.03;;;15.60;99.90;;;;;;4956244;28;94389;-31
2023/05/28 06:48:46;;;;;;;8.45;4.60;;;15.80;99.90;;;;;;4939515;28;95426;-32
2023/05/28 06:51:12;;;;;;;6.68;4.25;;;16.10;99.90;;;;;;4957556;28;92172;-33
2023/05/28 06:53:38;;;;;;;21.73;6.72;;;16.10;99.90;;;;;;4956738;28;93006;-34
2023/05/28 06:56:08;;;;;;;9.88;5.97;;;16.50;99.90;;;;;;4957539;28;95452;-33
2023/05/28 06:58:33;;;;;;;9.15;5.90;;;16.60;99.90;;;;;;4940226;28;94165;-35
2023/05/28 07:01:01;;;;;;;16.60;6.90;;;16.70;99.90;;;;;;4956897;28;93781;-34
2023/05/28 07:03:27;;;;;;;13.05;5.60;;;16.80;99.90;;;;;;4956765;28;91460;-34
2023/05/28 07:05:53;;;;;;;13.40;6.15;;;16.80;99.90;;;;;;4957464;28;94552;-34
2023/05/28 07:08:18;;;;;;;14.95;7.13;;;16.80;99.90;;;;;;4956599;28;94539;-32
2023/05/28 07:10:44;;;;;;;13.57;6.95;;;16.80;99.90;;;;;;4956651;28;95534;-35
2023/05/28 07:13:10;;;;;;;9.40;6.18;;;16.70;99.90;;;;;;4957403;28;93749;-30
2023/05/28 07:15:35;;;;;;;12.32;6.70;;;16.80;99.90;;;;;;4956306;28;95073;-31
2023/05/28 07:18:01;;;;;;;14.23;6.53;;;17.10;99.90;;;;;;4957218;28;94680;-33
2023/05/28 07:20:28;;;;;;;10.90;5.55;;;17.20;99.90;;;;;;4956639;28;94642;-33
2023/05/28 07:22:53;;;;;;;8.52;5.45;;;17.40;99.90;;;;;;4957062;28;94817;-36
2023/05/28 07:25:19;;;;;;;7.88;5.28;;;17.40;99.90;;;;;;4956780;28;93572;-32
2023/05/28 07:27:45;;;;;;;8.63;5.18;;;17.40;99.90;;;;;;4956566;28;93497;-31
2023/05/28 07:30:11;;;;;;;9.10;6.22;;;17.70;99.90;;;;;;4957134;28;94272;-34
2023/05/28 07:32:36;;;;;;;8.68;6.20;;;17.90;99.90;;;;;;4956790;28;92622;-33
2023/05/28 07:35:02;;;;;;;12.15;6.85;;;18.10;99.90;;;;;;4956372;28;95847;-31
2023/05/28 07:37:28;;;;;;;9.80;5.88;;;17.90;99.90;;;;;;4956368;28;95445;-31
2023/05/28 07:39:53;;;;;;;20.63;6.68;;;18.00;99.90;;;;;;4938788;28;93431;-32
2023/05/28 07:42:20;;;;;;;15.13;5.22;;;18.30;99.90;;;;;;4956119;28;92531;-33
2023/05/28 07:44:45;;;;;;;8.63;6.53;;;18.10;99.90;;;;;;4956455;28;94914;-32
2023/05/28 07:47:12;;;;;;;9.00;6.07;;;18.20;99.90;;;;;;4956386;28;94667;-31
2023/05/28 07:49:38;;;;;;;12.35;6.18;;;18.30;99.90;;;;;;4957470;28;94245;-30
2023/05/28 07:52:03;;;;;;;12.60;6.00;;;18.40;99.90;;;;;;4967337;28;93534;-34
2023/05/28 07:54:29;;;;;;;19.67;8.10;;;18.40;97.30;;;;;;4980853;28;94234;-35
2023/05/28 07:56:55;;;;;;;8.90;6.05;;;18.50;97.70;;;;;;4984203;28;95925;-34
2023/05/28 07:59:21;;;;;;;13.40;6.20;;;18.70;90.90;;;;;;4983231;28;95857;-31
2023/05/28 08:01:47;;;;;;;11.43;5.68;;;18.70;89.20;;;;;;4993896;28;94496;-33
2023/05/28 08:04:12;;;;;;;13.00;5.90;;;18.70;94.60;;;;;;4993281;28;95561;-32
2023/05/28 08:06:38;;;;;;;9.18;5.70;;;18.80;95.30;;;;;;4991161;28;93116;-30
2023/05/28 08:09:04;;;;;;;8.77;6.20;;;18.70;96.70;;;;;;4993654;28;94507;-33
2023/05/28 08:11:29;;;;;;;10.45;6.03;;;19.00;92.20;;;;;;4974272;28;94451;-34
2023/05/28 08:13:55;;;;;;;14.93;6.50;;;19.10;89.70;;;;;;4972299;28;94780;-33
2023/05/28 08:16:20;;;;;;;18.65;6.95;;;19.00;96.90;;;;;;4973176;28;94586;-35
2023/05/28 08:18:46;;;;;;;11.32;6.68;;;19.40;90.70;;;;;;4973642;28;93264;-31
2023/05/28 08:21:12;;;;;;;9.30;5.85;;;19.50;86.60;;;;;;4972251;28;94367;-31
2023/05/28 08:23:38;;;;;;;15.98;6.57;;;19.50;86.50;;;;;;4972531;28;95665;-35
2023/05/28 08:26:04;;;;;;;8.32;5.80;;;19.70;79.70;;;;;;4973065;28;96455;-32
2023/05/28 08:28:30;;;;;;;15.35;7.68;;;19.70;86.10;;;;;;4973476;28;92206;-30
2023/05/28 08:30:56;;;;;;;11.40;6.35;;;19.90;81.80;;;;;;4973200;28;93857;-32
2023/05/28 08:33:22;;;;;;;15.02;6.45;;;19.80;77.30;;;;;;4972137;28;94959;-33
2023/05/28 08:35:48;;;;;;;10.30;7.60;;;19.80;80.60;;;;;;4972807;28;94443;-35
2023/05/28 08:38:14;;;;;;;12.93;6.22;;;19.80;79.60;;;;;;4975473;28;93704;-33
2023/05/28 08:40:43;;;;;;;16.77;7.05;;;19.90;77.80;;;;;;4976982;28;92611;-35
2023/05/28 08:43:08;;;;;;;9.98;5.80;;;19.70;79.90;;;;;;4976154;28;95062;-33
2023/05/28 08:45:35;;;;;;;11.43;7.50;;;19.80;78.20;;;;;;4976685;28;94894;-33
2023/05/28 08:48:02;;;;;;;11.43;6.60;;;19.90;79.80;;;;;;4976529;28;95648;-31
2023/05/28 08:50:30;;;;;;;12.07;6.33;;;20.00;76.70;;;;;;4976744;28;94989;-30
2023/05/28 08:52:59;;;;;;;10.55;6.45;;;20.10;76.80;;;;;;4979059;28;95426;-34
2023/05/28 08:55:24;;;;;;;12.93;6.90;;;20.00;75.20;;;;;;4986863;28;94643;-32
2023/05/28 08:57:52;;;;;;;11.07;6.47;;;20.10;74.80;;;;;;4985082;28;93120;-32
2023/05/28 09:00:18;;;;;;;13.27;8.30;;;20.20;74.10;;;;;;4989803;28;94268;-34
2023/05/28 09:02:44;;;;;;;9.23;7.00;;;20.20;75.40;;;;;;4997775;28;95487;-32
2023/05/28 09:05:10;;;;;;;11.75;6.15;;;20.30;73.40;;;;;;4996314;28;94777;-31
2023/05/28 09:07:35;;;;;;;12.68;7.72;;;20.40;72.70;;;;;;4996403;28;93949;-36
2023/05/28 09:10:03;;;;;;;11.10;6.93;;;20.40;71.40;;;;;;4996644;28;94796;-33
2023/05/28 09:12:28;;;;;;;11.77;6.53;;;20.50;75.60;;;;;;4994500;28;95740;-31
2023/05/28 09:14:54;;;;;;;12.05;6.43;;;20.40;74.40;;;;;;4996322;28;95474;-34
2023/05/28 09:17:37;;;;;;;13.13;7.15;;;20.60;75.00;;;;;;4990043;28;93391;-32
2023/05/28 09:20:10;;;;;;;11.80;6.43;;;20.70;74.60;;;;;;4995911;28;94043;-32
2023/05/28 09:22:37;;;;;;;15.20;7.32;;;20.70;72.40;;;;;;4995297;28;95537;-30
2023/05/28 09:25:04;;;;;;;10.23;6.70;;;20.50;72.00;;;;;;4995913;28;94420;-35
2023/05/28 09:27:30;;;;;;;9.07;6.32;;;20.50;73.80;;;;;;4996045;28;92808;-33
2023/05/28 09:29:55;;;;;;;12.45;7.45;;;20.60;72.40;;;;;;4996210;28;92853;-33
2023/05/28 09:32:21;;;;;;;8.05;5.75;;;20.60;73.40;;;;;;4995484;28;94125;-31
2023/05/28 09:34:49;;;;;;;9.63;6.47;;;20.60;72.80;;;;;;4985044;28;94352;-34
2023/05/28 09:37:19;;;;;;;9.57;6.25;;;20.60;77.70;;;;;;4960680;28;94820;-34
2023/05/28 09:39:45;;;;;;;11.80;7.13;;;20.60;72.70;;;;;;4981758;28;92130;-30
2023/05/28 09:42:11;;;;;;;13.38;6.55;;;20.70;74.40;;;;;;4984779;28;94893;-33
2023/05/28 09:44:39;;;;;;;9.35;6.40;;;20.80;71.00;;;;;;4978274;28;93324;-35
2023/05/28 09:47:15;;;;;;;10.38;5.97;;;20.60;72.10;;;;;;4975681;28;93021;-33
2023/05/28 09:49:45;;;;;;;6.85;5.70;;;20.70;74.20;;;;;;4974459;28;92323;-32
2023/05/28 09:52:21;;;;;;;16.17;6.72;;;20.90;73.30;;;;;;4975055;28;94673;-36
2023/05/28 09:54:51;;;;;;;9.68;6.88;;;21.20;73.30;;;;;;4976207;28;95689;-34
2023/05/28 09:57:22;;;;;;;8.68;6.60;;;21.10;70.60;;;;;;4975923;28;94659;-31
2023/05/28 09:59:53;;;;;;;10.27;6.20;;;21.00;72.30;;;;;;4975959;28;92185;-35
2023/05/28 10:02:48;;;;;;;9.73;6.25;;;21.10;70.20;;;;;;4974106;28;95888;-33
2023/05/28 10:05:19;;;;;;;10.25;6.43;;;21.30;70.30;;;;;;4993567;28;95659;-33
2023/05/28 10:07:48;;;;;;;10.60;6.97;;;21.20;70.30;;;;;;4995742;28;92701;-32
2023/05/28 10:10:15;;;;;;;13.95;7.05;;;20.90;67.70;;;;;;4994877;28;93463;-31
2023/05/28 10:12:42;;;;;;;9.77;6.15;;;21.00;71.00;;;;;;4995391;28;94036;-32
2023/05/28 10:15:08;;;;;;;7.30;6.00;;;20.90;68.60;;;;;;4994801;28;94576;-34
2023/05/28 10:17:35;;;;;;;9.20;6.80;;;21.00;71.20;;;;;;4995696;28;94564;-36
2023/05/28 10:20:04;;;;;;;12.05;6.03;;;21.10;68.70;;;;;;4995922;28;93440;-32
2023/05/28 10:22:30;;;;;;;12.35;6.80;;;21.10;66.30;;;;;;4994222;28;94323;-30
2023/05/28 10:24:56;;;;;;;7.82;5.60;;;20.90;66.80;;;;;;4977283;28;93488;-36
2023/05/28 10:27:30;;;;;;;7.35;5.78;;;20.90;67.60;;;;;;4995177;28;93168;-30
2023/05/28 10:29:55;;;;;;;8.40;6.03;;;21.00;69.10;;;;;;4995396;28;94382;-34
2023/05/28 10:32:21;;;;;;;12.55;7.13;;;21.20;67.40;;;;;;4994993;28;96175;-32
2023/05/28 10:34:47;;;;;;;11.73;6.65;;;21.10;66.60;;;;;;4995075;28;94495;-32
2023/05/28 10:37:13;;;;;;;8.98;6.30;;;21.20;66.80;;;;;;4995404;28;93323;-34
2023/05/28 10:39:43;;;;;;;10.35;6.15;;;21.30;67.80;;;;;;4995238;28;93477;-33
2023/05/28 10:42:13;;;;;;;7.68;5.50;;;21.50;64.90;;;;;;4993406;28;95166;-32
2023/05/28 10:44:52;;;;;;;6.72;5.68;;;21.40;64.00;;;;;;4995483;28;94551;-31
2023/05/28 10:47:18;;;;;;;9.50;6.22;;;21.20;61.90;;;;;;4994342;28;92183;-30
2023/05/28 10:50:12;;;;;;;8.60;5.35;;;21.20;62.90;;;;;;4995209;28;93522;-32
2023/05/28 10:52:38;;;;;;;9.60;5.45;;;21.40;64.60;;;;;;4993584;28;95755;-35
2023/05/28 10:55:07;;;;;;;9.60;5.75;;;21.20;62.60;;;;;;4995056;28;95415;-32
2023/05/28 10:57:48;;;;;;;8.65;5.82;;;21.20;62.70;;;;;;4995221;28;93827;-30
2023/05/28 11:00:24;;;;;;;9.02;6.38;;;21.20;62.60;;;;;;4993984;28;94646;-35
2023/05/28 11:02:53;;;;;;;8.88;5.65;;;21.20;61.70;;;;;;4993955;28;94610;-34
2023/05/28 11:05:26;;;;;;;6.70;5.65;;;21.20;61.70;;;;;;4994281;28;94864;-33
2023/05/28 11:07:55;;;;;;;10.80;5.72;;;21.30;63.00;;;;;;4995461;28;92906;-33
2023/05/28 11:10:21;;;;;;;6.00;5.15;;;21.10;63.40;;;;;;4994721;28;92809;-32
2023/05/28 11:12:47;;;;;;;7.95;6.03;;;21.00;62.60;;;;;;4994249;28;94559;-36
2023/05/28 11:15:13;;;;;;;7.82;5.32;;;21.00;62.40;;;;;;4994639;28;93901;-30
2023/05/28 11:17:44;;;;;;;10.30;6.53;;;21.10;60.40;;;;;;4993860;28;94229;-35
2023/05/28 11:20:25;;;;;;;12.27;5.78;;;20.90;60.50;;;;;;4994183;28;92245;-31
2023/05/28 11:22:53;;;;;;;9.95;6.40;;;21.00;62.60;;;;;;4994544;28;93961;-32
2023/05/28 11:25:25;;;;;;;8.10;5.97;;;21.00;63.30;;;;;;4994178;28;94619;-34
2023/05/28 11:27:52;;;;;;;8.45;5.57;;;21.10;63.40;;;;;;4994835;28;93370;-30
2023/05/28 11:30:19;;;;;;;6.53;4.97;;;21.20;62.10;;;;;;4994332;28;92841;-34
2023/05/28 11:32:46;;;;;;;11.38;5.57;;;21.20;63.50;;;;;;4994255;28;94698;-32
2023/05/28 11:35:13;;;;;;;11.40;5.68;;;21.20;59.70;;;;;;4994078;28;94443;-32
2023/05/28 11:37:40;;;;;;;7.38;5.00;;;21.30;60.70;;;;;;4995467;28;92903;-30
2023/05/28 11:40:10;;;;;;;8.67;4.77;;;21.40;60.40;;;;;;4987460;28;94401;-35
2023/05/28 11:42:37;;;;;;;9.85;5.25;;;21.30;58.70;;;;;;4973138;28;95609;-31
2023/05/28 11:45:05;;;;;;;9.95;5.05;;;21.40;60.80;;;;;;4973802;28;96253;-33
2023/05/28 11:47:35;;;;;;;9.27;4.78;;;21.30;59.10;;;;;;4974386;28;93421;-35
2023/05/28 11:50:13;;;;;;;6.45;4.88;;;21.20;59.10;;;;;;4974207;28;93664;-35
2023/05/28 11:52:39;;;;;;;6.40;4.38;;;21.20;57.50;;;;;;4973383;28;94971;-34
2023/05/28 11:55:05;;;;;;;9.82;5.05;;;21.40;57.30;;;;;;4973681;28;94190;-34
2023/05/28 11:57:36;;;;;;;10.57;5.05;;;21.40;56.10;;;;;;4974014;28;93078;-31
2023/05/28 12:00:11;;;;;;;9.48;4.60;;;21.30;55.60;;;;;;4974158;28;93580;-35
2023/05/28 12:02:51;;;;;;;5.55;4.95;;;21.40;58.50;;;;;;4973352;28;95567;-32
2023/05/28 12:05:17;;;;;;;6.15;4.63;;;21.40;56.20;;;;;;4973830;28;95386;-30
2023/05/28 12:07:49;;;;;;;4.38;3.92;;;21.50;56.30;;;;;;4973267;28;94350;-34
2023/05/28 12:10:20;;;;;;;11.60;5.07;;;21.50;56.60;;;;;;4973288;28;93575;-36
2023/05/28 12:12:51;;;;;;;7.60;5.05;;;21.20;56.50;;;;;;4974893;28;95408;-34
2023/05/28 12:15:27;;;;;;;6.68;4.70;;;21.50;56.60;;;;;;4977287;28;94808;-32
2023/05/28 12:17:57;;;;;;;6.38;4.72;;;21.40;55.80;;;;;;4977216;28;93449;-36
2023/05/28 12:20:23;;;;;;;7.65;4.95;;;21.30;54.30;;;;;;4976376;28;92330;-31
2023/05/28 12:23:09;;;;;;;8.35;4.88;;;21.30;54.30;;;;;;4976820;28;94888;-32
2023/05/28 12:25:44;;;;;;;11.65;5.15;;;21.30;55.20;;;;;;4976214;28;94807;-33
2023/05/28 12:28:10;;;;;;;6.20;4.97;;;21.50;55.20;;;;;;4977240;28;95138;-31
2023/05/28 12:30:38;;;;;;;7.25;5.25;;;21.60;54.10;;;;;;4976960;28;92866;-34
2023/05/28 12:33:03;;;;;;;6.70;4.95;;;21.60;55.50;;;;;;4975467;28;96063;-32
2023/05/28 12:35:29;;;;;;;7.60;4.80;;;21.50;56.10;;;;;;4976785;28;94522;-32
2023/05/28 12:37:55;;;;;;;6.80;4.65;;;21.50;55.30;;;;;;4976660;28;92091;-35
2023/05/28 12:40:20;;;;;;;6.60;5.43;;;21.40;55.20;;;;;;4976545;28;94386;-34
2023/05/28 12:42:46;;;;;;;5.00;4.22;;;21.50;54.20;;;;;;4976295;28;94588;-34